sensor_id;sensor_type;location;lat;lon;timestamp;temperature;humidity
17307;DHT22;8771;48.048;7.682;2023-04-06T00:03:50;4.50;60.90
17307;DHT22;8771;48.048;7.682;2023-04-06T00:08:52;4.50;60.90
17307;DHT22;8771;48.048;7.682;2023-04-06T00:13:54;4.40;60.90
17307;DHT22;8771;48.048;7.682;2023-04-06T00:18:57;4.40;60.90
17307;DHT22;8771;48.048;7.682;2023-04-06T00:23:59;4.40;60.90
17307;DHT22;8771;48.048;7.682;2023-04-06T00:29:02;4.40;61.00
17307;DHT22;8771;48.048;7.682;2023-04-06T00:34:05;4.30;61.00
17307;DHT22;8771;48.048;7.682;2023-04-06T00:39:07;4.20;61.10
17307;DHT22;8771;48.048;7.682;2023-04-06T00:44:09;4.20;61.20
17307;DHT22;8771;48.048;7.682;2023-04-06T00:49:13;4.10;61.20
17307;DHT22;8771;48.048;7.682;2023-04-06T00:54:15;4.10;61.10
17307;DHT22;8771;48.048;7.682;2023-04-06T00:59:17;4.10;61.10
17307;DHT22;8771;48.048;7.682;2023-04-06T01:04:20;4.00;61.00
17307;DHT22;8771;48.048;7.682;2023-04-06T01:09:24;4.00;61.10
17307;DHT22;8771;48.048;7.682;2023-04-06T01:14:27;4.00;61.20
17307;DHT22;8771;48.048;7.682;2023-04-06T01:19:30;4.00;61.20
17307;DHT22;8771;48.048;7.682;2023-04-06T01:24:33;3.90;61.20
17307;DHT22;8771;48.048;7.682;2023-04-06T01:29:36;3.90;61.20
17307;DHT22;8771;48.048;7.682;2023-04-06T01:34:38;3.70;61.30
17307;DHT22;8771;48.048;7.682;2023-04-06T01:39:41;3.60;61.50
17307;DHT22;8771;48.048;7.682;2023-04-06T01:44:43;3.50;61.60
17307;DHT22;8771;48.048;7.682;2023-04-06T01:49:46;3.30;61.80
17307;DHT22;8771;48.048;7.682;2023-04-06T01:54:49;3.20;62.80
17307;DHT22;8771;48.048;7.682;2023-04-06T01:59:51;3.10;62.10
17307;DHT22;8771;48.048;7.682;2023-04-06T02:04:53;3.10;62.00
17307;DHT22;8771;48.048;7.682;2023-04-06T02:09:57;3.10;62.00
17307;DHT22;8771;48.048;7.682;2023-04-06T02:14:59;3.00;62.00
17307;DHT22;8771;48.048;7.682;2023-04-06T02:20:01;3.00;62.00
17307;DHT22;8771;48.048;7.682;2023-04-06T02:25:06;3.00;62.10
17307;DHT22;8771;48.048;7.682;2023-04-06T02:30:10;3.00;62.10
17307;DHT22;8771;48.048;7.682;2023-04-06T02:35:12;2.90;62.00
17307;DHT22;8771;48.048;7.682;2023-04-06T02:40:15;3.00;62.10
17307;DHT22;8771;48.048;7.682;2023-04-06T02:45:17;2.90;62.00
17307;DHT22;8771;48.048;7.682;2023-04-06T02:50:19;2.90;62.10
17307;DHT22;8771;48.048;7.682;2023-04-06T02:55:23;2.90;62.10
17307;DHT22;8771;48.048;7.682;2023-04-06T03:00:25;2.90;62.10
17307;DHT22;8771;48.048;7.682;2023-04-06T03:05:27;2.90;62.00
17307;DHT22;8771;48.048;7.682;2023-04-06T03:10:30;2.90;62.00
17307;DHT22;8771;48.048;7.682;2023-04-06T03:15:32;2.90;62.00
17307;DHT22;8771;48.048;7.682;2023-04-06T03:20:34;2.90;62.00
17307;DHT22;8771;48.048;7.682;2023-04-06T03:25:38;2.90;62.00
17307;DHT22;8771;48.048;7.682;2023-04-06T03:30:40;2.90;62.00
17307;DHT22;8771;48.048;7.682;2023-04-06T03:35:43;2.80;62.00
17307;DHT22;8771;48.048;7.682;2023-04-06T03:40:46;2.80;62.00
17307;DHT22;8771;48.048;7.682;2023-04-06T03:45:48;2.80;62.10
17307;DHT22;8771;48.048;7.682;2023-04-06T03:50:50;2.70;62.20
17307;DHT22;8771;48.048;7.682;2023-04-06T03:55:53;2.70;62.20
17307;DHT22;8771;48.048;7.682;2023-04-06T04:00:55;2.70;62.20
17307;DHT22;8771;48.048;7.682;2023-04-06T04:05:58;2.70;62.20
17307;DHT22;8771;48.048;7.682;2023-04-06T04:11:01;2.70;62.30
17307;DHT22;8771;48.048;7.682;2023-04-06T04:16:03;2.60;62.20
17307;DHT22;8771;48.048;7.682;2023-04-06T04:21:05;2.60;62.30
17307;DHT22;8771;48.048;7.682;2023-04-06T04:26:09;2.50;62.20
17307;DHT22;8771;48.048;7.682;2023-04-06T04:31:11;2.50;62.30
17307;DHT22;8771;48.048;7.682;2023-04-06T04:36:13;2.50;62.30
17307;DHT22;8771;48.048;7.682;2023-04-06T04:41:16;2.40;62.40
17307;DHT22;8771;48.048;7.682;2023-04-06T04:46:18;2.40;62.40
17307;DHT22;8771;48.048;7.682;2023-04-06T04:51:20;2.30;62.50
17307;DHT22;8771;48.048;7.682;2023-04-06T04:56:24;2.30;62.50
17307;DHT22;8771;48.048;7.682;2023-04-06T05:01:26;2.30;62.50
17307;DHT22;8771;48.048;7.682;2023-04-06T05:06:28;2.40;62.50
17307;DHT22;8771;48.048;7.682;2023-04-06T05:11:32;2.40;62.50
17307;DHT22;8771;48.048;7.682;2023-04-06T05:16:34;2.30;62.40
17307;DHT22;8771;48.048;7.682;2023-04-06T05:21:36;2.40;62.40
17307;DHT22;8771;48.048;7.682;2023-04-06T05:26:40;2.40;62.40
17307;DHT22;8771;48.048;7.682;2023-04-06T05:31:42;2.40;62.30
17307;DHT22;8771;48.048;7.682;2023-04-06T05:36:44;2.40;62.30
17307;DHT22;8771;48.048;7.682;2023-04-06T05:41:49;2.50;62.30
17307;DHT22;8771;48.048;7.682;2023-04-06T05:46:51;2.50;62.20
17307;DHT22;8771;48.048;7.682;2023-04-06T05:51:53;2.70;62.20
17307;DHT22;8771;48.048;7.682;2023-04-06T05:56:56;2.70;62.00
17307;DHT22;8771;48.048;7.682;2023-04-06T06:01:58;2.90;62.00
17307;DHT22;8771;48.048;7.682;2023-04-06T06:07:02;3.10;61.80
17307;DHT22;8771;48.048;7.682;2023-04-06T06:12:05;3.30;61.80
17307;DHT22;8771;48.048;7.682;2023-04-06T06:17:08;3.60;61.50
17307;DHT22;8771;48.048;7.682;2023-04-06T06:22:10;3.80;61.30
17307;DHT22;8771;48.048;7.682;2023-04-06T06:27:14;4.00;61.20
17307;DHT22;8771;48.048;7.682;2023-04-06T06:32:16;4.30;61.10
17307;DHT22;8771;48.048;7.682;2023-04-06T06:37:18;4.50;60.80
17307;DHT22;8771;48.048;7.682;2023-04-06T06:42:22;4.90;60.80
17307;DHT22;8771;48.048;7.682;2023-04-06T06:47:24;5.10;60.50
17307;DHT22;8771;48.048;7.682;2023-04-06T06:52:26;5.50;60.30
17307;DHT22;8771;48.048;7.682;2023-04-06T06:57:30;5.80;60.20
17307;DHT22;8771;48.048;7.682;2023-04-06T07:02:34;6.10;60.00
17307;DHT22;8771;48.048;7.682;2023-04-06T07:07:37;6.40;60.00
17307;DHT22;8771;48.048;7.682;2023-04-06T07:12:40;6.70;59.80
17307;DHT22;8771;48.048;7.682;2023-04-06T07:22:46;7.30;59.10
17307;DHT22;8771;48.048;7.682;2023-04-06T07:27:50;7.60;59.60
17307;DHT22;8771;48.048;7.682;2023-04-06T07:32:52;7.90;59.50
17307;DHT22;8771;48.048;7.682;2023-04-06T07:37:56;8.20;59.40
17307;DHT22;8771;48.048;7.682;2023-04-06T07:42:59;8.40;59.30
17307;DHT22;8771;48.048;7.682;2023-04-06T07:48:02;8.60;59.20
17307;DHT22;8771;48.048;7.682;2023-04-06T07:58:08;9.00;58.80
17307;DHT22;8771;48.048;7.682;2023-04-06T08:03:10;9.20;59.20
17307;DHT22;8771;48.048;7.682;2023-04-06T08:08:12;9.50;59.10
17307;DHT22;8771;48.048;7.682;2023-04-06T08:13:16;9.70;59.00
17307;DHT22;8771;48.048;7.682;2023-04-06T08:18:18;10.00;58.90
17307;DHT22;8771;48.048;7.682;2023-04-06T08:23:20;10.30;58.80
17307;DHT22;8771;48.048;7.682;2023-04-06T08:28:23;10.40;58.80
17307;DHT22;8771;48.048;7.682;2023-04-06T08:33:25;10.60;58.80
17307;DHT22;8771;48.048;7.682;2023-04-06T08:38:27;10.80;58.80
17307;DHT22;8771;48.048;7.682;2023-04-06T08:43:31;11.00;58.80
17307;DHT22;8771;48.048;7.682;2023-04-06T08:48:33;11.30;58.70
17307;DHT22;8771;48.048;7.682;2023-04-06T08:53:36;11.50;58.60
17307;DHT22;8771;48.048;7.682;2023-04-06T08:58:40;11.70;58.50
17307;DHT22;8771;48.048;7.682;2023-04-06T09:03:43;11.90;58.50
17307;DHT22;8771;48.048;7.682;2023-04-06T09:08:46;12.00;58.40
17307;DHT22;8771;48.048;7.682;2023-04-06T09:13:50;12.20;58.40
17307;DHT22;8771;48.048;7.682;2023-04-06T09:18:52;12.40;58.30
17307;DHT22;8771;48.048;7.682;2023-04-06T09:23:58;12.80;58.20
17307;DHT22;8771;48.048;7.682;2023-04-06T09:29:02;13.20;58.00
17307;DHT22;8771;48.048;7.682;2023-04-06T09:34:05;13.50;57.70
17307;DHT22;8771;48.048;7.682;2023-04-06T09:39:07;13.80;57.70
17307;DHT22;8771;48.048;7.682;2023-04-06T09:44:13;13.90;57.60
17307;DHT22;8771;48.048;7.682;2023-04-06T09:49:15;14.10;57.70
17307;DHT22;8771;48.048;7.682;2023-04-06T09:54:20;14.20;57.60
17307;DHT22;8771;48.048;7.682;2023-04-06T09:59:31;14.40;57.70
17307;DHT22;8771;48.048;7.682;2023-04-06T10:04:40;14.50;57.60
17307;DHT22;8771;48.048;7.682;2023-04-06T10:09:45;14.70;57.60
17307;DHT22;8771;48.048;7.682;2023-04-06T10:14:49;14.80;57.50
17307;DHT22;8771;48.048;7.682;2023-04-06T10:19:55;15.00;57.40
17307;DHT22;8771;48.048;7.682;2023-04-06T10:25:00;15.10;57.40
17307;DHT22;8771;48.048;7.682;2023-04-06T10:30:07;15.10;57.50
17307;DHT22;8771;48.048;7.682;2023-04-06T10:35:10;15.20;57.50
17307;DHT22;8771;48.048;7.682;2023-04-06T10:40:18;15.40;57.40
17307;DHT22;8771;48.048;7.682;2023-04-06T10:45:25;15.70;57.20
17307;DHT22;8771;48.048;7.682;2023-04-06T10:50:28;15.90;57.10
17307;DHT22;8771;48.048;7.682;2023-04-06T10:55:31;16.20;56.90
17307;DHT22;8771;48.048;7.682;2023-04-06T11:00:35;16.40;56.70
17307;DHT22;8771;48.048;7.682;2023-04-06T11:05:37;16.60;56.80
17307;DHT22;8771;48.048;7.682;2023-04-06T11:10:40;16.80;56.60
17307;DHT22;8771;48.048;7.682;2023-04-06T11:15:43;16.90;56.60
17307;DHT22;8771;48.048;7.682;2023-04-06T11:20:47;17.10;56.50
17307;DHT22;8771;48.048;7.682;2023-04-06T11:51:09;17.80;80.50
17307;DHT22;8771;48.048;7.682;2023-04-06T11:56:11;17.80;80.20
17307;DHT22;8771;48.048;7.682;2023-04-06T12:01:26;17.70;79.80
17307;DHT22;8771;48.048;7.682;2023-04-06T12:06:27;17.70;77.00
17307;DHT22;8771;48.048;7.682;2023-04-06T12:11:30;17.80;77.00
17307;DHT22;8771;48.048;7.682;2023-04-06T12:16:34;17.80;56.20
17307;DHT22;8771;48.048;7.682;2023-04-06T12:21:36;17.80;56.30
17307;DHT22;8771;48.048;7.682;2023-04-06T12:26:39;18.00;56.20
17307;DHT22;8771;48.048;7.682;2023-04-06T12:31:44;18.10;56.00
17307;DHT22;8771;48.048;7.682;2023-04-06T12:36:46;18.10;56.00
17307;DHT22;8771;48.048;7.682;2023-04-06T12:41:48;18.20;55.90
17307;DHT22;8771;48.048;7.682;2023-04-06T12:46:51;18.20;55.90
17307;DHT22;8771;48.048;7.682;2023-04-06T12:51:54;18.30;55.90
17307;DHT22;8771;48.048;7.682;2023-04-06T12:56:56;18.40;55.90
17307;DHT22;8771;48.048;7.682;2023-04-06T13:01:59;18.40;55.70
17307;DHT22;8771;48.048;7.682;2023-04-06T13:07:02;18.30;55.70
17307;DHT22;8771;48.048;7.682;2023-04-06T13:12:05;18.30;55.90
17307;DHT22;8771;48.048;7.682;2023-04-06T13:17:08;18.30;55.80
17307;DHT22;8771;48.048;7.682;2023-04-06T13:22:11;18.50;55.80
17307;DHT22;8771;48.048;7.682;2023-04-06T13:27:13;18.60;55.60
17307;DHT22;8771;48.048;7.682;2023-04-06T13:32:17;18.70;55.50
17307;DHT22;8771;48.048;7.682;2023-04-06T13:37:19;18.50;55.50
17307;DHT22;8771;48.048;7.682;2023-04-06T13:42:21;18.30;55.70
17307;DHT22;8771;48.048;7.682;2023-04-06T13:47:24;18.40;55.60
17307;DHT22;8771;48.048;7.682;2023-04-06T13:52:26;18.40;55.50
17307;DHT22;8771;48.048;7.682;2023-04-06T13:57:28;18.50;55.60
17307;DHT22;8771;48.048;7.682;2023-04-06T14:02:32;18.40;55.50
17307;DHT22;8771;48.048;7.682;2023-04-06T14:07:34;18.40;55.60
17307;DHT22;8771;48.048;7.682;2023-04-06T14:12:36;18.30;55.70
17307;DHT22;8771;48.048;7.682;2023-04-06T14:17:39;18.00;55.90
17307;DHT22;8771;48.048;7.682;2023-04-06T14:22:41;17.90;56.00
17307;DHT22;8771;48.048;7.682;2023-04-06T14:27:43;17.90;56.00
17307;DHT22;8771;48.048;7.682;2023-04-06T14:32:47;17.90;56.00
17307;DHT22;8771;48.048;7.682;2023-04-06T14:37:49;17.90;55.80
17307;DHT22;8771;48.048;7.682;2023-04-06T14:42:51;17.90;55.70
17307;DHT22;8771;48.048;7.682;2023-04-06T14:47:54;17.90;55.70
17307;DHT22;8771;48.048;7.682;2023-04-06T14:52:56;17.80;55.70
17307;DHT22;8771;48.048;7.682;2023-04-06T14:57:58;17.80;55.90
17307;DHT22;8771;48.048;7.682;2023-04-06T15:03:01;17.70;55.90
17307;DHT22;8771;48.048;7.682;2023-04-06T15:08:04;17.60;56.00
17307;DHT22;8771;48.048;7.682;2023-04-06T15:13:08;17.60;55.90
17307;DHT22;8771;48.048;7.682;2023-04-06T15:18:12;17.60;55.90
17307;DHT22;8771;48.048;7.682;2023-04-06T15:23:14;17.50;56.00
17307;DHT22;8771;48.048;7.682;2023-04-06T15:28:16;17.40;56.00
17307;DHT22;8771;48.048;7.682;2023-04-06T15:33:20;17.30;56.10
17307;DHT22;8771;48.048;7.682;2023-04-06T15:38:22;17.10;56.20
17307;DHT22;8771;48.048;7.682;2023-04-06T15:43:24;16.90;56.30
17307;DHT22;8771;48.048;7.682;2023-04-06T15:48:28;16.80;56.50
17307;DHT22;8771;48.048;7.682;2023-04-06T15:53:31;16.60;56.50
17307;DHT22;8771;48.048;7.682;2023-04-06T15:58:33;16.50;56.50
17307;DHT22;8771;48.048;7.682;2023-04-06T16:03:37;16.50;56.50
17307;DHT22;8771;48.048;7.682;2023-04-06T16:08:39;16.40;56.50
17307;DHT22;8771;48.048;7.682;2023-04-06T16:13:41;16.40;56.30
17307;DHT22;8771;48.048;7.682;2023-04-06T16:18:44;16.40;56.30
17307;DHT22;8771;48.048;7.682;2023-04-06T16:23:47;16.30;56.40
17307;DHT22;8771;48.048;7.682;2023-04-06T16:28:49;16.10;56.50
17307;DHT22;8771;48.048;7.682;2023-04-06T16:33:55;16.00;56.50
17307;DHT22;8771;48.048;7.682;2023-04-06T16:38:58;15.90;56.50
17307;DHT22;8771;48.048;7.682;2023-04-06T16:44:00;15.90;56.50
17307;DHT22;8771;48.048;7.682;2023-04-06T16:49:04;15.70;56.50
17307;DHT22;8771;48.048;7.682;2023-04-06T16:54:06;15.60;56.60
17307;DHT22;8771;48.048;7.682;2023-04-06T16:59:09;15.40;56.70
17307;DHT22;8771;48.048;7.682;2023-04-06T17:04:12;15.20;56.80
17307;DHT22;8771;48.048;7.682;2023-04-06T17:09:14;14.60;72.30
17307;DHT22;8771;48.048;7.682;2023-04-06T17:14:16;14.30;67.20
17307;DHT22;8771;48.048;7.682;2023-04-06T17:19:20;14.10;67.70
17307;DHT22;8771;48.048;7.682;2023-04-06T17:24:22;14.00;66.10
17307;DHT22;8771;48.048;7.682;2023-04-06T17:29:24;14.00;68.90
17307;DHT22;8771;48.048;7.682;2023-04-06T17:34:27;13.90;73.30
17307;DHT22;8771;48.048;7.682;2023-04-06T17:39:31;13.80;76.10
17307;DHT22;8771;48.048;7.682;2023-04-06T17:44:32;13.60;75.10
17307;DHT22;8771;48.048;7.682;2023-04-06T17:49:36;13.40;86.30
17307;DHT22;8771;48.048;7.682;2023-04-06T18:09:49;13.20;90.70
17307;DHT22;8771;48.048;7.682;2023-04-06T19:01:05;12.40;91.20
17307;DHT22;8771;48.048;7.682;2023-04-06T19:06:09;12.30;88.90
17307;DHT22;8771;48.048;7.682;2023-04-06T19:11:11;12.40;88.50
17307;DHT22;8771;48.048;7.682;2023-04-06T19:16:13;12.40;88.20
17307;DHT22;8771;48.048;7.682;2023-04-06T19:21:17;12.40;88.00
17307;DHT22;8771;48.048;7.682;2023-04-06T19:26:20;12.50;87.90
17307;DHT22;8771;48.048;7.682;2023-04-06T19:31:23;12.40;87.40
17307;DHT22;8771;48.048;7.682;2023-04-06T19:36:27;12.50;87.00
17307;DHT22;8771;48.048;7.682;2023-04-06T19:41:31;12.50;87.00
17307;DHT22;8771;48.048;7.682;2023-04-06T19:46:33;12.50;86.80
17307;DHT22;8771;48.048;7.682;2023-04-06T19:51:37;12.50;87.40
17307;DHT22;8771;48.048;7.682;2023-04-06T19:56:39;12.50;86.70
17307;DHT22;8771;48.048;7.682;2023-04-06T20:01:41;12.50;86.60
17307;DHT22;8771;48.048;7.682;2023-04-06T20:06:44;12.50;86.00
17307;DHT22;8771;48.048;7.682;2023-04-06T20:11:46;12.40;86.00
17307;DHT22;8771;48.048;7.682;2023-04-06T20:21:54;12.10;91.00
17307;DHT22;8771;48.048;7.682;2023-04-06T20:26:57;12.10;86.10
17307;DHT22;8771;48.048;7.682;2023-04-06T21:38:00;11.90;95.10
17307;DHT22;8771;48.048;7.682;2023-04-06T21:43:02;11.90;94.90
17307;DHT22;8771;48.048;7.682;2023-04-06T21:48:05;11.90;94.80
17307;DHT22;8771;48.048;7.682;2023-04-06T21:53:08;11.90;93.80
17307;DHT22;8771;48.048;7.682;2023-04-06T21:58:10;11.80;91.70
17307;DHT22;8771;48.048;7.682;2023-04-06T22:03:12;11.80;82.40
17307;DHT22;8771;48.048;7.682;2023-04-06T22:08:15;11.70;75.20
17307;DHT22;8771;48.048;7.682;2023-04-06T22:13:17;11.80;58.70
17307;DHT22;8771;48.048;7.682;2023-04-06T22:18:19;11.70;58.70
17307;DHT22;8771;48.048;7.682;2023-04-06T22:23:23;11.70;58.80
17307;DHT22;8771;48.048;7.682;2023-04-06T22:28:25;11.60;58.80
17307;DHT22;8771;48.048;7.682;2023-04-06T22:33:27;11.60;58.80
17307;DHT22;8771;48.048;7.682;2023-04-06T22:38:31;11.50;58.80
17307;DHT22;8771;48.048;7.682;2023-04-06T22:43:32;11.50;58.80
17307;DHT22;8771;48.048;7.682;2023-04-06T22:48:34;11.50;58.90
17307;DHT22;8771;48.048;7.682;2023-04-06T22:53:38;11.40;58.90
17307;DHT22;8771;48.048;7.682;2023-04-06T22:58:40;11.40;58.90
17307;DHT22;8771;48.048;7.682;2023-04-06T23:03:42;11.40;59.00
17307;DHT22;8771;48.048;7.682;2023-04-06T23:08:45;11.40;58.90
17307;DHT22;8771;48.048;7.682;2023-04-06T23:13:47;11.40;59.50
17307;DHT22;8771;48.048;7.682;2023-04-06T23:18:49;11.40;59.00
17307;DHT22;8771;48.048;7.682;2023-04-06T23:23:52;11.40;59.00
17307;DHT22;8771;48.048;7.682;2023-04-06T23:28:54;11.40;59.00
17307;DHT22;8771;48.048;7.682;2023-04-06T23:33:56;11.30;59.00
17307;DHT22;8771;48.048;7.682;2023-04-06T23:38:59;11.30;59.00
17307;DHT22;8771;48.048;7.682;2023-04-06T23:44:01;11.30;59.00
17307;DHT22;8771;48.048;7.682;2023-04-06T23:49:03;11.30;59.00
17307;DHT22;8771;48.048;7.682;2023-04-06T23:54:07;11.30;59.00
17307;DHT22;8771;48.048;7.682;2023-04-06T23:59:09;11.20;59.00
